Badgeworth, United Kingdom
Current Conditions -  °F | °C
As of 10:20 AM on Wednesday 22 Oct 2014 (Local Time) from EGBJ Reporting Station
Few Clouds Few Clouds  
Wind Chill: 11°   Ceiling: Unl
Heat Index: 11°   Visibility: 6mi
Dew Point:   Wind: 5mph
Humidity: 76%   Direction: 200°SSW
Pressure: 30.3"   Gusts: NA
Location:  51.91°N, 2.11°W
Report Text: EGBJ 220920Z 20004KT 9999 FEW045 11/07 Q1026
Loading
Personal Weather Stations






























Interactive Weather Map
Tropical Storm Tracking
New forecast layout! Learn more

10-Day Weather Forecast

Advertisements
Track Severe Weather on mobile